Time;durP1;ratioP1;P1;durP2;ratioP2;P2;SDS_P1;SDS_P2;PMS_P1;PMS_P2;Temp;Humidity;BMP_temperature;BMP_pressure;BME280_temperature;BME280_humidity;BME280_pressure;Samples;Min_cycle;Max_cycle;Signal;HPM_P1;HPM_P2
2022/04/21 00:02:05;;;;;;;20.15;13.65;;;;;;;;;;5062803;28;20055;-83
2022/04/21 00:04:32;;;;;;;21.00;13.93;;;;;;;;;;5064094;28;20052;-84
2022/04/21 00:06:58;;;;;;;20.02;13.27;;;;;;;;;;5037220;28;20029;-85
2022/04/21 00:09:24;;;;;;;17.42;12.48;;;;;;;;;;5069872;28;20033;-83
2022/04/21 00:11:50;;;;;;;21.80;13.05;;;;;;;;;;5042090;28;20136;-85
2022/04/21 00:14:16;;;;;;;22.27;13.20;;;;;;;;;;5041386;28;20123;-84
2022/04/21 00:16:43;;;;;;;22.40;12.90;;;;;;;;;;5037853;28;20451;-84
2022/04/21 00:19:09;;;;;;;20.98;11.70;;;;;;;;;;5042877;28;20039;-84
2022/04/21 00:24:21;;;;;;;21.63;13.23;;;;;;;;;;5054578;28;20071;-84
2022/04/21 00:26:47;;;;;;;18.92;12.07;;;;;;;;;;5038056;28;20048;-84
2022/04/21 00:29:13;;;;;;;21.42;12.23;;;;;;;;;;5060137;28;20082;-85
2022/04/21 00:31:40;;;;;;;19.83;12.10;;;;;;;;;;5064568;28;20547;-84
2022/04/21 00:34:06;;;;;;;24.80;13.65;;;;;;;;;;5062190;28;20174;-84
2022/04/21 00:36:32;;;;;;;25.08;13.48;;;;;;;;;;5046896;28;20120;-84
2022/04/21 00:39:06;;;;;;;18.65;12.57;;;;;;;;;;5049481;28;20052;-86
2022/04/21 00:41:32;;;;;;;21.70;13.88;;;;;;;;;;5066527;28;20033;-84
2022/04/21 00:43:58;;;;;;;18.92;12.88;;;;;;;;;;5045886;28;20040;-84
2022/04/21 00:46:24;;;;;;;22.95;13.02;;;;;;;;;;5068403;28;20052;-84
2022/04/21 00:48:50;;;;;;;19.75;12.98;;;;;;;;;;5070398;28;20064;-84
2022/04/21 00:51:16;;;;;;;19.23;13.07;;;;;;;;;;5066982;28;20440;-84
2022/04/21 00:53:43;;;;;;;20.67;12.60;;;;;;;;;;5051363;28;20043;-85
2022/04/21 00:56:10;;;;;;;24.02;12.75;;;;;;;;;;5072399;28;20029;-83
2022/04/21 00:58:37;;;;;;;20.75;13.40;;;;;;;;;;5071078;28;20036;-84
2022/04/21 01:02:46;;;;;;;24.98;13.20;;;;;;;;;;5071146;28;20037;-83
2022/04/21 01:03:50;;;;;;;20.55;12.80;;;;;;;;;;5053037;28;20044;-85
2022/04/21 01:06:16;;;;;;;20.30;13.32;;;;;;;;;;5065461;28;20037;-83
2022/04/21 01:08:43;;;;;;;23.52;13.00;;;;;;;;;;5066481;28;20021;-84
2022/04/21 01:11:10;;;;;;;19.88;12.55;;;;;;;;;;5062403;28;21533;-84
2022/04/21 01:13:36;;;;;;;20.33;13.48;;;;;;;;;;5067914;28;20044;-84
2022/04/21 01:16:02;;;;;;;22.45;12.95;;;;;;;;;;5055752;28;20021;-83
2022/04/21 01:18:29;;;;;;;19.20;12.75;;;;;;;;;;5046441;28;20016;-83
2022/04/21 01:20:55;;;;;;;23.08;13.75;;;;;;;;;;5041539;28;20078;-84
2022/04/21 01:23:21;;;;;;;20.88;13.38;;;;;;;;;;5037355;28;20032;-84
2022/04/21 01:25:49;;;;;;;20.52;11.73;;;;;;;;;;5068371;28;20043;-84
2022/04/21 01:28:15;;;;;;;18.75;12.55;;;;;;;;;;5062834;28;20075;-84
2022/04/21 01:30:41;;;;;;;20.52;12.27;;;;;;;;;;5067861;28;20012;-85
2022/04/21 01:33:08;;;;;;;22.80;12.57;;;;;;;;;;5055154;28;20115;-84
2022/04/21 01:35:34;;;;;;;19.73;11.07;;;;;;;;;;5066992;28;20033;-84
2022/04/21 01:43:31;;;;;;;20.58;12.18;;;;;;;;;;5069479;28;20027;-82
2022/04/21 01:45:57;;;;;;;20.40;11.75;;;;;;;;;;5047558;28;20100;-84
2022/04/21 01:48:24;;;;;;;24.42;11.48;;;;;;;;;;5065680;28;20111;-83
2022/04/21 01:50:50;;;;;;;16.75;11.30;;;;;;;;;;5066198;28;20017;-83
2022/04/21 01:53:16;;;;;;;18.40;11.32;;;;;;;;;;5047850;28;20031;-83
2022/04/21 01:55:42;;;;;;;20.02;11.95;;;;;;;;;;5042653;28;20025;-84
2022/04/21 01:58:08;;;;;;;18.92;11.38;;;;;;;;;;5048226;28;20343;-84
2022/04/21 02:00:34;;;;;;;26.00;12.00;;;;;;;;;;5062906;28;20049;-84
2022/04/21 02:03:01;;;;;;;17.27;11.80;;;;;;;;;;5064158;28;20051;-84
2022/04/21 02:05:27;;;;;;;19.38;11.95;;;;;;;;;;5041721;28;20127;-84
2022/04/21 02:07:54;;;;;;;22.70;12.93;;;;;;;;;;5046646;28;20077;-84
2022/04/21 02:10:25;;;;;;;19.77;12.93;;;;;;;;;;5056421;28;20059;-83
2022/04/21 02:12:51;;;;;;;18.38;12.25;;;;;;;;;;5059037;28;20032;-84
2022/04/21 02:15:18;;;;;;;19.98;11.77;;;;;;;;;;5044601;28;20119;-83
2022/04/21 02:17:44;;;;;;;23.33;13.25;;;;;;;;;;5062056;28;20032;-83
2022/04/21 02:20:12;;;;;;;20.08;12.77;;;;;;;;;;5066231;28;20073;-84
2022/04/21 02:22:38;;;;;;;19.20;12.82;;;;;;;;;;5067971;28;20074;-84
2022/04/21 02:25:09;;;;;;;22.35;13.10;;;;;;;;;;5047383;28;20041;-83
2022/04/21 02:27:36;;;;;;;20.35;12.95;;;;;;;;;;5068019;28;20043;-84
2022/04/21 02:30:03;;;;;;;20.40;12.63;;;;;;;;;;5049059;28;20059;-84
2022/04/21 02:32:30;;;;;;;21.73;12.43;;;;;;;;;;5053566;28;20560;-84
2022/04/21 02:34:57;;;;;;;24.20;13.52;;;;;;;;;;5071782;28;20099;-85
2022/04/21 02:37:23;;;;;;;27.25;13.85;;;;;;;;;;5064726;28;20025;-84
2022/04/21 02:39:49;;;;;;;21.50;14.00;;;;;;;;;;5071299;28;20028;-85
2022/04/21 02:42:16;;;;;;;21.33;13.32;;;;;;;;;;5063305;28;20294;-85
2022/04/21 02:44:42;;;;;;;20.83;13.05;;;;;;;;;;5064740;28;20039;-85
2022/04/21 02:47:08;;;;;;;24.38;13.85;;;;;;;;;;5042276;28;20070;-84
2022/04/21 02:49:37;;;;;;;23.50;13.65;;;;;;;;;;5066205;28;20032;-84
2022/04/21 02:52:07;;;;;;;21.90;13.15;;;;;;;;;;5063479;28;20211;-84
2022/04/21 02:57:21;;;;;;;21.08;13.57;;;;;;;;;;5056425;28;20040;-85
2022/04/21 02:59:48;;;;;;;27.15;13.82;;;;;;;;;;5046862;28;20048;-84
2022/04/21 03:02:14;;;;;;;22.27;13.60;;;;;;;;;;5040659;28;20040;-84
2022/04/21 03:04:40;;;;;;;24.95;13.85;;;;;;;;;;5060290;28;20558;-84
2022/04/21 03:07:06;;;;;;;20.27;12.73;;;;;;;;;;5048436;28;20024;-84
2022/04/21 03:09:32;;;;;;;20.13;13.45;;;;;;;;;;5067432;28;20028;-84
2022/04/21 03:12:05;;;;;;;23.67;13.82;;;;;;;;;;5038526;28;20044;-84
2022/04/21 03:14:31;;;;;;;20.83;13.57;;;;;;;;;;5044699;28;20024;-84
2022/04/21 03:16:58;;;;;;;20.30;13.57;;;;;;;;;;5063732;28;20121;-83
2022/04/21 03:19:24;;;;;;;19.67;13.77;;;;;;;;;;5061893;28;20127;-84
2022/04/21 03:24:35;;;;;;;24.85;14.13;;;;;;;;;;5067581;28;20070;-84
2022/04/21 03:27:03;;;;;;;21.67;14.23;;;;;;;;;;5066348;28;20025;-86
2022/04/21 03:29:29;;;;;;;22.85;14.30;;;;;;;;;;5050398;28;20051;-84
2022/04/21 03:31:55;;;;;;;23.33;14.35;;;;;;;;;;5071624;28;20032;-85
2022/04/21 03:34:22;;;;;;;24.67;14.88;;;;;;;;;;5047154;28;20021;-86
2022/04/21 03:36:48;;;;;;;28.25;15.45;;;;;;;;;;5060447;28;20032;-85
2022/04/21 03:39:15;;;;;;;25.50;15.63;;;;;;;;;;5067817;28;20033;-85
2022/04/21 03:41:41;;;;;;;30.75;15.77;;;;;;;;;;5037378;28;20029;-85
2022/04/21 03:44:09;;;;;;;26.27;15.65;;;;;;;;;;5064718;28;20039;-85
2022/04/21 03:46:35;;;;;;;30.40;15.00;;;;;;;;;;5061932;28;20095;-86
2022/04/21 03:49:01;;;;;;;27.52;15.88;;;;;;;;;;5062383;28;20033;-85
2022/04/21 03:51:27;;;;;;;25.55;15.85;;;;;;;;;;5060089;28;20089;-85
2022/04/21 03:53:56;;;;;;;29.70;16.80;;;;;;;;;;5058197;28;20028;-84
2022/04/21 03:56:22;;;;;;;25.13;16.17;;;;;;;;;;5058600;28;20086;-84
2022/04/21 03:58:48;;;;;;;30.40;19.05;;;;;;;;;;5062250;28;20539;-85
2022/04/21 04:01:14;;;;;;;30.92;17.73;;;;;;;;;;5065671;28;20020;-85
2022/04/21 04:03:40;;;;;;;29.95;18.25;;;;;;;;;;5069922;28;20182;-86
2022/04/21 04:11:37;;;;;;;35.13;17.58;;;;;;;;;;5068179;28;20078;-85
2022/04/21 04:14:05;;;;;;;29.17;17.90;;;;;;;;;;5073691;28;20041;-85
2022/04/21 04:16:35;;;;;;;37.00;18.83;;;;;;;;;;5077309;28;20040;-85
2022/04/21 04:19:03;;;;;;;32.05;17.58;;;;;;;;;;5066929;28;20036;-85
2022/04/21 04:21:30;;;;;;;40.65;18.88;;;;;;;;;;5066179;28;20041;-84
2022/04/21 04:23:57;;;;;;;35.72;18.42;;;;;;;;;;5067306;28;20055;-85
2022/04/21 04:26:22;;;;;;;31.70;17.95;;;;;;;;;;5047523;28;20122;-85
2022/04/21 04:28:49;;;;;;;33.30;18.13;;;;;;;;;;5043157;28;20033;-86
2022/04/21 04:31:16;;;;;;;36.88;18.33;;;;;;;;;;5066935;28;20029;-85
2022/04/21 04:33:42;;;;;;;34.25;18.48;;;;;;;;;;5066727;28;20103;-85
2022/04/21 04:36:10;;;;;;;40.63;18.17;;;;;;;;;;5062812;28;20032;-85
2022/04/21 04:38:37;;;;;;;30.98;19.38;;;;;;;;;;5065421;28;20036;-85
2022/04/21 04:42:16;;;;;;;38.00;19.65;;;;;;;;;;5048856;28;20021;-85
2022/04/21 04:43:49;;;;;;;32.10;19.15;;;;;;;;;;5062371;28;20048;-86
2022/04/21 04:46:34;;;;;;;37.17;19.67;;;;;;;;;;5062454;28;20028;-85
2022/04/21 04:49:00;;;;;;;32.70;18.35;;;;;;;;;;5063474;28;20036;-85
2022/04/21 04:51:27;;;;;;;31.90;18.65;;;;;;;;;;5052712;28;20040;-86
2022/04/21 04:53:56;;;;;;;45.15;17.52;;;;;;;;;;5051060;28;20025;-83
2022/04/21 04:56:22;;;;;;;45.00;18.60;;;;;;;;;;5068228;28;20025;-84
2022/04/21 04:58:49;;;;;;;37.42;19.05;;;;;;;;;;5064078;28;20640;-86
2022/04/21 05:01:19;;;;;;;32.47;18.85;;;;;;;;;;5075417;28;20608;-84
2022/04/21 05:03:45;;;;;;;36.05;19.25;;;;;;;;;;5067911;28;20048;-81
2022/04/21 05:06:11;;;;;;;46.65;20.42;;;;;;;;;;5060104;28;20032;-80
2022/04/21 05:08:37;;;;;;;37.65;18.73;;;;;;;;;;5060602;28;20707;-79
2022/04/21 05:11:03;;;;;;;26.92;17.40;;;;;;;;;;5057905;28;20036;-79
2022/04/21 05:13:30;;;;;;;30.60;19.20;;;;;;;;;;5058142;28;20033;-80
2022/04/21 05:15:56;;;;;;;30.65;17.45;;;;;;;;;;5062076;28;20075;-80
2022/04/21 05:18:22;;;;;;;25.30;16.23;;;;;;;;;;5060352;28;20036;-78
2022/04/21 05:20:48;;;;;;;27.75;15.00;;;;;;;;;;5042201;28;20052;-80
2022/04/21 05:23:17;;;;;;;19.35;12.90;;;;;;;;;;5059127;28;20047;-79
2022/04/21 05:25:43;;;;;;;16.67;11.23;;;;;;;;;;5041571;28;20025;-78
2022/04/21 05:28:09;;;;;;;17.25;10.85;;;;;;;;;;5064175;28;20029;-79
2022/04/21 05:33:26;;;;;;;32.15;11.07;;;;;;;;;;5056475;28;20133;-77
2022/04/21 05:35:53;;;;;;;14.50;9.90;;;;;;;;;;5063515;28;20085;-79
2022/04/21 05:38:21;;;;;;;13.75;9.63;;;;;;;;;;5039295;28;20925;-78
2022/04/21 05:40:47;;;;;;;15.25;9.35;;;;;;;;;;5040098;28;20455;-77
2022/04/21 05:43:14;;;;;;;16.25;9.70;;;;;;;;;;5043524;28;20047;-81
2022/04/21 05:45:41;;;;;;;15.00;9.20;;;;;;;;;;5061639;28;20037;-78
2022/04/21 05:48:08;;;;;;;13.65;9.13;;;;;;;;;;5066359;28;20485;-78
2022/04/21 05:50:34;;;;;;;26.30;10.23;;;;;;;;;;5041736;28;20051;-77
2022/04/21 05:53:02;;;;;;;14.20;8.80;;;;;;;;;;5039583;28;20194;-79
2022/04/21 05:55:34;;;;;;;16.13;9.10;;;;;;;;;;5062925;28;20037;-78
2022/04/21 05:58:00;;;;;;;16.83;9.48;;;;;;;;;;5066000;28;20073;-79
2022/04/21 06:00:26;;;;;;;14.07;8.43;;;;;;;;;;5064164;28;20196;-79
2022/04/21 06:02:52;;;;;;;14.75;8.63;;;;;;;;;;5052275;28;20589;-78
2022/04/21 06:05:19;;;;;;;17.45;8.05;;;;;;;;;;5038203;28;20073;-79
2022/04/21 06:07:45;;;;;;;11.65;7.85;;;;;;;;;;5039615;28;20033;-79
2022/04/21 06:10:11;;;;;;;12.70;8.75;;;;;;;;;;5039896;28;20380;-79
2022/04/21 06:12:38;;;;;;;12.85;8.20;;;;;;;;;;5036170;28;20044;-79
2022/04/21 06:15:04;;;;;;;16.75;8.25;;;;;;;;;;5041006;28;20053;-80
2022/04/21 06:17:30;;;;;;;14.02;7.60;;;;;;;;;;5032781;28;20029;-78
2022/04/21 06:19:56;;;;;;;13.40;7.82;;;;;;;;;;5042733;28;20105;-78
2022/04/21 06:22:22;;;;;;;13.82;7.72;;;;;;;;;;5032303;28;20483;-78
2022/04/21 06:24:48;;;;;;;12.68;7.85;;;;;;;;;;5013543;28;20095;-78
2022/04/21 06:27:14;;;;;;;19.65;8.10;;;;;;;;;;5030551;28;20043;-79
2022/04/21 06:29:40;;;;;;;11.80;7.70;;;;;;;;;;5031473;28;20108;-79
2022/04/21 06:32:07;;;;;;;35.03;9.30;;;;;;;;;;5039348;28;20441;-78
2022/04/21 06:34:33;;;;;;;12.35;7.88;;;;;;;;;;5021812;28;20025;-78
2022/04/21 06:37:01;;;;;;;10.57;7.47;;;;;;;;;;5042004;28;20036;-79
2022/04/21 06:39:27;;;;;;;24.60;7.60;;;;;;;;;;5051318;28;20028;-79
2022/04/21 06:41:54;;;;;;;12.63;6.65;;;;;;;;;;5048935;28;20044;-79
2022/04/21 06:49:49;;;;;;;13.05;7.45;;;;;;;;;;5052275;28;20135;-78
2022/04/21 06:52:15;;;;;;;14.15;6.68;;;;;;;;;;5046008;28;20052;-79
2022/04/21 06:54:41;;;;;;;12.43;6.93;;;;;;;;;;5018531;28;20042;-80
2022/04/21 06:57:07;;;;;;;16.85;6.97;;;;;;;;;;5046186;28;20036;-79
2022/04/21 06:59:33;;;;;;;12.35;7.05;;;;;;;;;;5032477;28;20029;-79
2022/04/21 07:01:59;;;;;;;11.63;6.85;;;;;;;;;;5040662;28;20037;-78
2022/04/21 07:04:27;;;;;;;14.30;6.90;;;;;;;;;;5016694;28;20502;-78
2022/04/21 07:06:53;;;;;;;17.77;7.60;;;;;;;;;;5032278;28;20041;-78
2022/04/21 07:09:19;;;;;;;9.98;6.38;;;;;;;;;;5040212;28;20028;-78
2022/04/21 07:11:45;;;;;;;9.43;6.43;;;;;;;;;;5039117;28;20029;-79
2022/04/21 07:14:12;;;;;;;12.75;6.65;;;;;;;;;;5035552;28;20167;-79
2022/04/21 07:16:38;;;;;;;9.30;6.40;;;;;;;;;;5048960;28;20033;-78
2022/04/21 07:19:05;;;;;;;11.57;6.82;;;;;;;;;;5041505;28;20083;-78
2022/04/21 07:21:31;;;;;;;12.45;6.50;;;;;;;;;;5040169;28;20114;-80
2022/04/21 07:23:57;;;;;;;17.52;6.45;;;;;;;;;;5042864;28;20033;-79
2022/04/21 07:26:23;;;;;;;14.52;6.35;;;;;;;;;;5033370;28;20033;-79
2022/04/21 07:28:49;;;;;;;15.25;6.38;;;;;;;;;;5040027;28;20441;-79
2022/04/21 07:31:15;;;;;;;14.48;7.03;;;;;;;;;;5035688;28;20048;-78
2022/04/21 07:33:42;;;;;;;17.80;6.30;;;;;;;;;;5033665;28;20072;-79
2022/04/21 07:36:08;;;;;;;8.63;6.57;;;;;;;;;;5029923;28;20461;-78
2022/04/21 07:38:34;;;;;;;7.93;6.18;;;;;;;;;;5036845;28;20041;-79
2022/04/21 07:41:01;;;;;;;9.90;6.18;;;;;;;;;;5041646;28;20030;-79
2022/04/21 07:43:27;;;;;;;13.27;7.35;;;;;;;;;;5038940;28;20087;-80
2022/04/21 07:45:54;;;;;;;11.13;7.75;;;;;;;;;;5041806;28;20099;-80
2022/04/21 07:48:20;;;;;;;11.68;6.70;;;;;;;;;;5046260;28;20040;-80
2022/04/21 07:50:46;;;;;;;8.07;6.18;;;;;;;;;;5042689;28;20029;-79
2022/04/21 07:53:15;;;;;;;11.95;6.07;;;;;;;;;;5040668;28;20037;-79
2022/04/21 07:55:42;;;;;;;8.82;6.15;;;;;;;;;;5036062;28;20064;-79
2022/04/21 07:58:09;;;;;;;10.95;6.72;;;;;;;;;;5037284;28;20159;-80
2022/04/21 08:00:36;;;;;;;11.77;6.55;;;;;;;;;;5047881;28;20058;-79
2022/04/21 08:03:03;;;;;;;13.43;6.38;;;;;;;;;;5045332;28;20030;-80
2022/04/21 08:05:30;;;;;;;10.48;6.97;;;;;;;;;;5038909;28;20470;-79
2022/04/21 08:07:57;;;;;;;9.40;6.72;;;;;;;;;;5065874;28;20143;-79
2022/04/21 08:10:25;;;;;;;13.07;6.72;;;;;;;;;;5066686;28;20095;-79
2022/04/21 08:12:52;;;;;;;12.95;7.30;;;;;;;;;;5054849;28;20363;-80
2022/04/21 08:15:21;;;;;;;12.57;7.05;;;;;;;;;;5060770;28;20037;-81
2022/04/21 08:17:47;;;;;;;12.70;7.65;;;;;;;;;;5061555;28;20039;-79
2022/04/21 08:20:14;;;;;;;11.65;7.55;;;;;;;;;;5042400;28;20044;-80
2022/04/21 08:22:40;;;;;;;10.57;6.60;;;;;;;;;;5062198;28;20370;-78
2022/04/21 08:33:22;;;;;;;12.32;6.95;;;;;;;;;;5066184;28;20139;-78
2022/04/21 08:35:49;;;;;;;12.75;6.68;;;;;;;;;;5058353;28;20029;-79
2022/04/21 08:38:16;;;;;;;12.15;6.25;;;;;;;;;;5073219;28;20035;-78
2022/04/21 08:40:51;;;;;;;10.32;6.47;;;;;;;;;;5062148;28;20048;-79
2022/04/21 08:43:18;;;;;;;9.93;6.00;;;;;;;;;;5073769;28;20032;-78
2022/04/21 08:45:45;;;;;;;7.88;5.85;;;;;;;;;;5068541;28;20039;-79
2022/04/21 08:48:12;;;;;;;11.15;5.35;;;;;;;;;;5042042;28;20028;-78
2022/04/21 08:50:38;;;;;;;7.80;3.53;;;;;;;;;;5055283;28;20064;-78
2022/04/21 08:53:05;;;;;;;7.40;3.63;;;;;;;;;;5069403;28;20039;-78
2022/04/21 08:55:32;;;;;;;6.20;3.90;;;;;;;;;;5071378;28;20058;-78
2022/04/21 08:57:58;;;;;;;5.45;3.13;;;;;;;;;;5065345;28;20033;-79
2022/04/21 09:00:24;;;;;;;4.22;3.50;;;;;;;;;;5058172;28;20505;-79
2022/04/21 09:02:51;;;;;;;10.07;3.58;;;;;;;;;;5056166;28;20053;-78
2022/04/21 09:05:20;;;;;;;5.97;3.85;;;;;;;;;;5053369;28;20029;-79
2022/04/21 09:07:46;;;;;;;12.63;3.80;;;;;;;;;;5064557;28;20033;-78
2022/04/21 09:10:13;;;;;;;7.13;3.53;;;;;;;;;;5061053;28;20040;-79
2022/04/21 09:12:43;;;;;;;5.15;2.90;;;;;;;;;;5064072;28;20017;-78
2022/04/21 09:15:12;;;;;;;9.13;3.90;;;;;;;;;;5065657;28;20025;-79
2022/04/21 09:17:51;;;;;;;8.85;3.20;;;;;;;;;;5070263;28;20548;-79
2022/04/21 09:20:18;;;;;;;7.13;3.58;;;;;;;;;;5068284;28;20324;-79
2022/04/21 09:22:57;;;;;;;7.50;3.38;;;;;;;;;;5058937;28;20079;-78
2022/04/21 09:25:25;;;;;;;4.13;3.00;;;;;;;;;;5070713;28;20064;-79
2022/04/21 09:27:51;;;;;;;13.20;3.53;;;;;;;;;;5060488;28;20032;-79
2022/04/21 09:30:18;;;;;;;17.95;3.60;;;;;;;;;;5061255;28;20056;-81
2022/04/21 09:33:10;;;;;;;6.00;2.60;;;;;;;;;;5055556;28;20156;-79
2022/04/21 09:35:37;;;;;;;7.38;2.45;;;;;;;;;;5051302;28;20045;-79
2022/04/21 09:38:04;;;;;;;6.15;2.55;;;;;;;;;;5058227;28;20505;-78
2022/04/21 09:40:31;;;;;;;5.00;1.90;;;;;;;;;;5065748;28;20033;-80
2022/04/21 09:42:57;;;;;;;5.78;2.28;;;;;;;;;;5062692;28;20036;-78
2022/04/21 09:48:16;;;;;;;4.95;2.65;;;;;;;;;;5056547;28;20114;-79
2022/04/21 09:50:42;;;;;;;5.37;2.40;;;;;;;;;;5056712;28;20432;-79
2022/04/21 09:53:08;;;;;;;4.68;2.35;;;;;;;;;;5057283;28;20037;-78
2022/04/21 09:55:34;;;;;;;4.47;2.15;;;;;;;;;;5056924;28;20171;-78
2022/04/21 09:58:08;;;;;;;6.57;2.40;;;;;;;;;;5062804;28;20032;-79
2022/04/21 10:00:35;;;;;;;8.13;2.28;;;;;;;;;;5061552;28;20025;-79
2022/04/21 10:03:05;;;;;;;4.28;2.45;;;;;;;;;;5034285;28;20506;-79
2022/04/21 10:05:34;;;;;;;7.97;2.45;;;;;;;;;;5058001;28;20438;-79
2022/04/21 10:08:01;;;;;;;4.72;2.15;;;;;;;;;;5058959;28;20203;-81
2022/04/21 10:10:31;;;;;;;3.50;2.50;;;;;;;;;;5054908;28;20107;-77
2022/04/21 10:12:59;;;;;;;2.70;2.22;;;;;;;;;;5055188;28;20037;-79
2022/04/21 10:15:25;;;;;;;5.82;2.40;;;;;;;;;;5059859;28;20032;-77
2022/04/21 10:17:51;;;;;;;6.43;2.38;;;;;;;;;;5055213;28;20029;-79
2022/04/21 10:20:17;;;;;;;5.60;2.55;;;;;;;;;;5057061;28;20033;-78
2022/04/21 10:22:45;;;;;;;7.47;2.40;;;;;;;;;;5060553;28;20370;-80
2022/04/21 10:25:12;;;;;;;4.85;2.60;;;;;;;;;;5056365;28;20047;-77
2022/04/21 10:27:38;;;;;;;7.40;2.80;;;;;;;;;;5064391;28;20494;-77
2022/04/21 10:30:14;;;;;;;3.28;2.40;;;;;;;;;;5060555;28;20107;-79
2022/04/21 10:32:46;;;;;;;15.40;3.97;;;;;;;;;;5058945;28;20025;-77
2022/04/21 10:35:21;;;;;;;4.93;2.55;;;;;;;;;;5056209;28;20025;-79
2022/04/21 10:37:47;;;;;;;8.02;2.88;;;;;;;;;;5062590;28;20028;-81
2022/04/21 10:40:21;;;;;;;11.15;3.17;;;;;;;;;;5067110;28;20025;-78
2022/04/21 10:42:53;;;;;;;5.35;2.90;;;;;;;;;;5060287;28;20079;-77
2022/04/21 10:45:26;;;;;;;4.97;3.00;;;;;;;;;;5061333;28;20032;-79
2022/04/21 10:48:06;;;;;;;6.53;2.97;;;;;;;;;;5058918;28;20024;-77
2022/04/21 10:50:33;;;;;;;6.95;2.65;;;;;;;;;;5058945;28;20430;-78
2022/04/21 10:58:37;;;;;;;5.13;3.05;;;;;;;;;;5066418;28;20497;-77
2022/04/21 11:01:09;;;;;;;5.50;3.17;;;;;;;;;;5058682;28;20463;-78
2022/04/21 11:03:38;;;;;;;6.68;3.47;;;;;;;;;;5058554;28;20502;-79
2022/04/21 11:06:05;;;;;;;4.78;2.45;;;;;;;;;;5057210;28;20128;-79
2022/04/21 11:08:31;;;;;;;8.93;3.47;;;;;;;;;;5055927;28;20036;-78
2022/04/21 11:10:58;;;;;;;5.35;2.30;;;;;;;;;;5061257;28;20104;-80
2022/04/21 11:13:43;;;;;;;6.90;2.20;;;;;;;;;;5060516;28;20063;-80
2022/04/21 11:16:10;;;;;;;4.57;2.40;;;;;;;;;;5049440;28;20516;-80
2022/04/21 11:18:36;;;;;;;6.80;2.55;;;;;;;;;;5051270;28;20052;-80
2022/04/21 11:21:22;;;;;;;5.32;2.65;;;;;;;;;;5053387;28;20081;-79
2022/04/21 11:23:48;;;;;;;8.40;2.97;;;;;;;;;;5053684;28;20528;-80
2022/04/21 11:26:14;;;;;;;4.93;3.10;;;;;;;;;;5054673;28;20051;-79
2022/04/21 11:28:44;;;;;;;21.90;2.85;;;;;;;;;;5060060;28;20029;-78
2022/04/21 11:31:10;;;;;;;4.22;3.00;;;;;;;;;;5057576;28;20024;-75
2022/04/21 11:33:39;;;;;;;5.45;3.20;;;;;;;;;;5054349;28;20112;-79
2022/04/21 11:36:08;;;;;;;8.35;3.05;;;;;;;;;;5053059;28;20442;-82
2022/04/21 11:38:44;;;;;;;3.70;2.45;;;;;;;;;;5052901;28;20020;-79
2022/04/21 11:41:11;;;;;;;5.57;2.40;;;;;;;;;;5043690;28;20038;-82
2022/04/21 11:43:45;;;;;;;4.57;2.30;;;;;;;;;;5067993;28;20064;-79
2022/04/21 11:46:12;;;;;;;10.85;2.72;;;;;;;;;;5060854;28;20040;-80
2022/04/21 11:48:42;;;;;;;6.63;2.90;;;;;;;;;;5053072;28;20037;-80
2022/04/21 11:51:08;;;;;;;6.50;2.65;;;;;;;;;;5064748;28;20309;-79
2022/04/21 11:53:40;;;;;;;5.35;2.92;;;;;;;;;;5055897;28;20037;-79
2022/04/21 11:56:08;;;;;;;7.25;3.00;;;;;;;;;;5058196;28;20398;-80
2022/04/21 11:58:44;;;;;;;9.38;3.03;;;;;;;;;;5065670;28;20047;-78
2022/04/21 12:06:48;;;;;;;7.13;3.00;;;;;;;;;;5064654;28;20051;-81
2022/04/21 12:09:16;;;;;;;8.48;4.25;;;;;;;;;;5066266;28;20071;-80
2022/04/21 12:11:43;;;;;;;9.55;5.43;;;;;;;;;;5054538;28;20029;-78
2022/04/21 12:14:09;;;;;;;6.47;4.63;;;;;;;;;;5034669;28;20033;-82
2022/04/21 12:16:44;;;;;;;7.28;4.13;;;;;;;;;;5049650;28;20112;-81
2022/04/21 12:19:26;;;;;;;11.52;6.30;;;;;;;;;;5054131;28;20024;-79
2022/04/21 12:22:01;;;;;;;20.50;8.13;;;;;;;;;;5055594;28;20036;-79
2022/04/21 12:24:35;;;;;;;6.82;2.88;;;;;;;;;;5055468;28;20056;-79
2022/04/21 12:27:02;;;;;;;4.25;2.25;;;;;;;;;;5056061;28;20248;-78
2022/04/21 12:29:29;;;;;;;5.35;2.65;;;;;;;;;;5068007;28;20047;-81
2022/04/21 12:32:05;;;;;;;5.78;2.60;;;;;;;;;;5058362;28;20060;-78
2022/04/21 12:34:31;;;;;;;14.88;7.68;;;;;;;;;;5054584;28;20112;-79
2022/04/21 12:37:01;;;;;;;10.40;5.70;;;;;;;;;;5057747;28;20082;-79
2022/04/21 12:39:29;;;;;;;8.18;5.30;;;;;;;;;;5055491;28;20072;-78
2022/04/21 12:41:55;;;;;;;10.38;6.40;;;;;;;;;;5055515;28;20497;-79
2022/04/21 12:44:24;;;;;;;12.80;4.05;;;;;;;;;;5055128;28;20017;-78
2022/04/21 12:47:00;;;;;;;10.00;3.55;;;;;;;;;;5055166;28;20032;-77
2022/04/21 12:49:45;;;;;;;7.38;2.70;;;;;;;;;;5067038;28;20036;-79
2022/04/21 12:52:11;;;;;;;7.72;3.25;;;;;;;;;;5057912;28;20040;-79
2022/04/21 12:54:37;;;;;;;3.97;2.95;;;;;;;;;;5040806;28;20051;-79
2022/04/21 12:57:07;;;;;;;7.82;3.17;;;;;;;;;;5056855;28;20021;-79
2022/04/21 12:59:33;;;;;;;10.32;2.67;;;;;;;;;;5061591;28;20238;-80
2022/04/21 13:01:59;;;;;;;6.45;1.77;;;;;;;;;;5059510;28;20013;-81
2022/04/21 13:04:25;;;;;;;3.75;2.17;;;;;;;;;;5061331;28;20181;-81
2022/04/21 13:06:51;;;;;;;4.28;1.70;;;;;;;;;;5060483;28;20155;-79
2022/04/21 13:09:17;;;;;;;4.78;2.90;;;;;;;;;;5056322;28;20052;-78
2022/04/21 13:11:43;;;;;;;4.68;2.20;;;;;;;;;;5060618;28;20033;-79
2022/04/21 13:14:09;;;;;;;4.97;2.53;;;;;;;;;;5050973;28;20120;-80
2022/04/21 13:16:35;;;;;;;5.45;2.22;;;;;;;;;;5036839;28;20486;-81
2022/04/21 13:19:01;;;;;;;8.20;2.75;;;;;;;;;;5059509;28;20025;-79
2022/04/21 13:24:12;;;;;;;5.28;2.80;;;;;;;;;;5057352;28;20115;-78
2022/04/21 13:26:38;;;;;;;4.25;2.60;;;;;;;;;;5044336;28;20040;-79
2022/04/21 13:29:06;;;;;;;8.52;3.15;;;;;;;;;;5067783;28;20736;-79
2022/04/21 13:34:16;;;;;;;4.68;2.53;;;;;;;;;;5054773;28;20414;-80
2022/04/21 13:36:42;;;;;;;4.32;3.05;;;;;;;;;;5061580;28;20445;-79
2022/04/21 13:39:08;;;;;;;5.60;3.60;;;;;;;;;;5052717;28;20135;-79
2022/04/21 13:41:35;;;;;;;7.43;3.25;;;;;;;;;;5061783;28;20029;-79
2022/04/21 13:44:02;;;;;;;6.10;2.88;;;;;;;;;;5053693;28;20481;-80
2022/04/21 13:46:31;;;;;;;8.48;3.10;;;;;;;;;;5053634;28;20060;-80
2022/04/21 13:48:57;;;;;;;7.30;2.75;;;;;;;;;;5062628;28;20572;-78
2022/04/21 13:51:24;;;;;;;8.82;2.25;;;;;;;;;;5058318;28;20417;-78
2022/04/21 13:53:51;;;;;;;4.88;2.67;;;;;;;;;;5055994;28;20060;-78
2022/04/21 13:56:17;;;;;;;10.13;3.00;;;;;;;;;;5054438;28;20120;-79
2022/04/21 13:58:43;;;;;;;10.27;3.67;;;;;;;;;;5046489;28;20032;-79
2022/04/21 14:01:09;;;;;;;6.32;3.40;;;;;;;;;;5061692;28;20465;-79
2022/04/21 14:03:38;;;;;;;11.50;3.55;;;;;;;;;;5060658;28;20052;-79
2022/04/21 14:06:07;;;;;;;4.35;3.15;;;;;;;;;;5054661;28;20106;-79
2022/04/21 14:08:37;;;;;;;7.55;3.40;;;;;;;;;;5061430;28;20133;-79
2022/04/21 14:11:03;;;;;;;5.00;3.00;;;;;;;;;;5069199;28;20032;-79
2022/04/21 14:13:30;;;;;;;9.20;3.85;;;;;;;;;;5038870;28;20063;-81
2022/04/21 14:15:56;;;;;;;11.07;3.08;;;;;;;;;;5066845;28;20056;-79
2022/04/21 14:18:22;;;;;;;9.70;3.42;;;;;;;;;;5066955;28;20025;-78
2022/04/21 14:20:48;;;;;;;10.23;3.72;;;;;;;;;;5049470;28;20036;-79
2022/04/21 14:23:15;;;;;;;6.53;4.00;;;;;;;;;;5063961;28;20459;-78
2022/04/21 14:25:41;;;;;;;6.18;4.22;;;;;;;;;;5056692;28;20021;-80
2022/04/21 14:28:07;;;;;;;11.38;4.10;;;;;;;;;;5061046;28;20040;-79
2022/04/21 14:30:34;;;;;;;12.73;5.10;;;;;;;;;;5055376;28;20028;-79
2022/04/21 14:33:00;;;;;;;5.57;3.30;;;;;;;;;;5057686;28;20072;-80
2022/04/21 14:35:26;;;;;;;7.18;3.85;;;;;;;;;;5041699;28;20051;-81
2022/04/21 14:46:08;;;;;;;9.82;4.50;;;;;;;;;;5056488;28;20067;-80
2022/04/21 14:48:33;;;;;;;10.00;4.72;;;;;;;;;;5056272;28;20033;-82
2022/04/21 14:50:59;;;;;;;9.63;4.82;;;;;;;;;;5035558;28;20140;-79
2022/04/21 14:53:26;;;;;;;8.00;4.75;;;;;;;;;;5060600;28;20037;-80
2022/04/21 14:55:52;;;;;;;7.28;4.85;;;;;;;;;;5040047;28;20255;-78
2022/04/21 14:58:21;;;;;;;10.68;4.68;;;;;;;;;;5056634;28;20020;-78
2022/04/21 15:00:47;;;;;;;8.82;4.93;;;;;;;;;;5058908;28;20032;-79
2022/04/21 15:03:13;;;;;;;12.68;5.28;;;;;;;;;;5061030;28;20041;-80
2022/04/21 15:05:40;;;;;;;6.93;5.00;;;;;;;;;;5062503;28;20377;-79
2022/04/21 15:08:08;;;;;;;10.98;5.30;;;;;;;;;;5057794;28;20024;-80
2022/04/21 15:10:35;;;;;;;7.93;5.60;;;;;;;;;;5058624;28;20067;-80
2022/04/21 15:13:03;;;;;;;13.18;5.88;;;;;;;;;;5060497;28;20040;-80
2022/04/21 15:15:30;;;;;;;10.05;5.53;;;;;;;;;;5058643;28;20037;-77
2022/04/21 15:17:56;;;;;;;10.43;4.93;;;;;;;;;;5056249;28;20028;-79
2022/04/21 15:20:22;;;;;;;9.85;5.45;;;;;;;;;;5059683;28;20493;-77
2022/04/21 15:22:48;;;;;;;9.30;5.35;;;;;;;;;;5058685;28;20036;-78
2022/04/21 15:25:14;;;;;;;11.05;5.50;;;;;;;;;;5062583;28;20033;-78
2022/04/21 15:27:40;;;;;;;15.05;5.35;;;;;;;;;;5038583;28;20035;-79
2022/04/21 15:30:07;;;;;;;10.95;5.18;;;;;;;;;;5057970;28;20050;-78
2022/04/21 15:32:33;;;;;;;6.07;5.10;;;;;;;;;;5056856;28;20437;-79
2022/04/21 15:34:59;;;;;;;11.30;5.53;;;;;;;;;;5054164;28;20043;-82
2022/04/21 15:37:25;;;;;;;11.05;5.05;;;;;;;;;;5059436;28;20036;-80